Time;durP1;ratioP1;P1;durP2;ratioP2;P2;SDS_P1;SDS_P2;PMS_P1;PMS_P2;Temp;Humidity;BMP_temperature;BMP_pressure;BME280_temperature;BME280_humidity;BME280_pressure;Samples;Min_cycle;Max_cycle;Signal;HPM_P1;HPM_P2
2022/11/05 00:10:36;;;;;;;6.37;3.73;;;7.40;99.90;;;;;;5051708;28;20837;-72
2022/11/05 00:18:30;;;;;;;14.53;5.93;;;7.30;99.90;;;;;;5033738;28;20468;-73
2022/11/05 00:20:56;;;;;;;7.63;3.80;;;7.30;99.90;;;;;;5047612;28;20832;-75
2022/11/05 00:26:08;;;;;;;4.13;3.73;;;7.30;99.90;;;;;;5052847;28;20571;-73
2022/11/05 00:28:35;;;;;;;9.10;4.47;;;7.30;99.90;;;;;;5052495;28;20416;-75
2022/11/05 00:31:03;;;;;;;4.43;4.00;;;7.30;99.90;;;;;;5052573;28;20805;-73
2022/11/05 00:33:29;;;;;;;7.57;3.90;;;7.30;99.90;;;;;;5053041;28;20791;-73
2022/11/05 00:35:55;;;;;;;7.33;3.60;;;7.40;99.90;;;;;;5050856;28;20443;-75
2022/11/05 00:38:20;;;;;;;6.70;3.70;;;7.40;99.90;;;;;;5053226;28;20910;-73
2022/11/05 00:40:46;;;;;;;10.23;5.87;;;7.30;99.90;;;;;;5052423;28;20578;-72
2022/11/05 00:45:56;;;;;;;4.83;3.20;;;7.30;99.90;;;;;;5052544;28;20238;-75
2022/11/05 00:51:07;;;;;;;6.00;3.93;;;7.20;99.90;;;;;;5052394;28;20663;-73
2022/11/05 00:53:33;;;;;;;8.00;3.80;;;7.20;99.90;;;;;;5053156;28;20533;-75
2022/11/05 00:55:59;;;;;;;3.33;3.00;;;7.10;99.90;;;;;;5051502;28;20496;-75
2022/11/05 00:58:28;;;;;;;4.03;3.13;;;7.00;99.90;;;;;;5053016;28;20440;-75
2022/11/05 01:00:56;;;;;;;4.43;3.10;;;7.00;99.90;;;;;;5051767;28;20417;-75
2022/11/05 01:03:34;;;;;;;10.33;4.50;;;7.00;99.90;;;;;;5051904;28;20456;-74
2022/11/05 01:06:11;;;;;;;5.90;2.93;;;6.90;99.90;;;;;;5052372;28;20437;-73
2022/11/05 01:08:37;;;;;;;4.40;3.10;;;6.90;99.90;;;;;;5053095;28;20417;-75
2022/11/05 01:11:31;;;;;;;8.20;3.93;;;6.90;99.90;;;;;;5052076;28;20429;-73
2022/11/05 01:14:05;;;;;;;9.07;4.10;;;6.90;99.90;;;;;;5051491;28;20950;-75
2022/11/05 01:16:31;;;;;;;5.60;3.20;;;6.90;99.90;;;;;;5052890;28;20421;-74
2022/11/05 01:18:56;;;;;;;6.33;3.10;;;6.90;99.90;;;;;;5054411;28;20739;-75
2022/11/05 01:21:22;;;;;;;2.93;2.73;;;6.90;99.90;;;;;;5055497;28;20455;-72
2022/11/05 01:23:48;;;;;;;11.23;3.70;;;6.80;99.90;;;;;;5055954;28;20170;-75
2022/11/05 01:26:14;;;;;;;14.33;3.83;;;6.80;99.90;;;;;;5056961;28;20194;-76
2022/11/05 01:28:40;;;;;;;11.40;3.07;;;6.80;99.90;;;;;;5055415;28;20536;-73
2022/11/05 01:31:05;;;;;;;3.33;2.63;;;6.80;99.90;;;;;;5055602;28;20511;-75
2022/11/05 01:33:31;;;;;;;7.27;3.17;;;6.80;99.90;;;;;;5056439;28;20710;-75
2022/11/05 01:35:57;;;;;;;10.20;4.07;;;6.80;99.90;;;;;;5055838;28;20528;-72
2022/11/05 01:38:23;;;;;;;6.83;3.87;;;6.80;99.90;;;;;;5056411;28;20509;-75
2022/11/05 01:40:48;;;;;;;6.10;3.20;;;6.80;99.90;;;;;;5054272;28;20612;-73
2022/11/05 01:43:20;;;;;;;7.63;3.00;;;6.80;99.90;;;;;;5055683;28;20191;-72
2022/11/05 01:45:51;;;;;;;4.50;2.67;;;6.70;99.90;;;;;;5055638;28;20632;-72
2022/11/05 01:48:22;;;;;;;7.57;3.30;;;6.70;99.90;;;;;;5056357;28;20416;-75
2022/11/05 01:51:00;;;;;;;8.90;3.83;;;6.70;99.90;;;;;;5055204;28;20424;-72
2022/11/05 01:53:42;;;;;;;9.67;3.73;;;6.60;99.90;;;;;;5056317;28;20464;-80
2022/11/05 01:56:21;;;;;;;6.50;3.70;;;6.60;99.90;;;;;;5056297;28;20528;-73
2022/11/05 01:58:55;;;;;;;20.10;3.93;;;6.60;99.90;;;;;;5054660;28;20495;-75
2022/11/05 02:01:21;;;;;;;6.20;3.83;;;6.60;99.90;;;;;;5056284;28;20793;-72
2022/11/05 02:03:49;;;;;;;10.93;4.20;;;6.60;99.90;;;;;;5055287;28;20432;-75
2022/11/05 02:06:16;;;;;;;9.60;4.90;;;6.60;99.90;;;;;;5056035;28;20441;-76
2022/11/05 02:09:00;;;;;;;6.97;3.93;;;6.60;99.90;;;;;;5054967;28;20422;-74
2022/11/05 02:11:25;;;;;;;8.00;3.97;;;6.60;99.90;;;;;;5055939;28;20451;-73
2022/11/05 02:13:54;;;;;;;6.43;3.90;;;6.60;99.90;;;;;;5055058;28;20890;-74
2022/11/05 02:16:41;;;;;;;4.23;3.47;;;6.60;99.90;;;;;;5055405;28;20191;-74
2022/11/05 02:19:44;;;;;;;5.83;3.90;;;6.60;99.90;;;;;;5053656;28;20433;-75
2022/11/05 02:22:13;;;;;;;4.03;3.20;;;6.60;99.90;;;;;;5055870;28;20411;-74
2022/11/05 02:25:03;;;;;;;8.77;3.70;;;6.70;99.90;;;;;;5054847;28;20735;-73
2022/11/05 02:27:40;;;;;;;5.60;3.33;;;6.70;99.90;;;;;;5052965;28;20453;-79
2022/11/05 02:30:17;;;;;;;9.20;3.80;;;6.70;99.90;;;;;;5054533;28;20404;-75
2022/11/05 02:33:05;;;;;;;5.97;3.27;;;6.60;99.90;;;;;;5055453;28;20506;-74
2022/11/05 02:35:36;;;;;;;10.83;4.50;;;6.60;99.90;;;;;;5054024;28;20413;-73
2022/11/05 02:38:30;;;;;;;8.00;4.27;;;6.60;99.90;;;;;;5053484;28;20422;-75
2022/11/05 02:41:11;;;;;;;4.23;3.30;;;6.60;99.90;;;;;;5055197;28;20402;-74
2022/11/05 02:43:50;;;;;;;4.60;3.40;;;6.60;99.90;;;;;;5054150;28;20545;-81
2022/11/05 02:46:40;;;;;;;5.80;4.07;;;6.70;99.90;;;;;;5055261;28;20437;-75
2022/11/05 02:49:36;;;;;;;4.53;3.73;;;6.70;99.90;;;;;;5054153;28;20437;-75
2022/11/05 02:52:34;;;;;;;11.23;3.20;;;6.60;99.90;;;;;;5054899;28;20535;-73
2022/11/05 02:55:17;;;;;;;5.03;3.63;;;6.70;99.90;;;;;;5051809;28;20437;-73
2022/11/05 02:57:45;;;;;;;6.77;3.90;;;6.70;99.90;;;;;;5053047;28;20445;-75
2022/11/05 03:00:45;;;;;;;6.10;3.60;;;6.70;99.90;;;;;;5055225;28;20471;-73
2022/11/05 03:03:38;;;;;;;12.40;4.23;;;6.70;99.90;;;;;;5043328;28;21002;-74
2022/11/05 03:06:13;;;;;;;4.03;3.57;;;6.80;99.90;;;;;;5054680;28;20451;-75
2022/11/05 03:09:09;;;;;;;11.37;4.20;;;6.80;99.90;;;;;;5054033;28;20428;-73
2022/11/05 03:11:50;;;;;;;12.53;3.70;;;6.70;99.90;;;;;;5054606;28;20909;-74
2022/11/05 03:14:41;;;;;;;5.30;3.30;;;6.80;99.90;;;;;;5033650;28;20895;-74
2022/11/05 03:17:21;;;;;;;4.57;3.67;;;6.80;99.90;;;;;;5036370;28;20441;-75
2022/11/05 03:19:57;;;;;;;6.30;3.40;;;6.80;99.90;;;;;;5052667;28;20451;-74
2022/11/05 03:22:34;;;;;;;4.57;4.17;;;6.80;99.90;;;;;;5047583;28;20459;-75
2022/11/05 03:25:07;;;;;;;6.23;3.70;;;6.80;99.90;;;;;;5053469;28;20824;-73
2022/11/05 03:27:36;;;;;;;3.53;3.23;;;6.80;99.90;;;;;;5054355;28;20410;-74
2022/11/05 03:30:05;;;;;;;5.73;4.67;;;6.80;99.90;;;;;;5054219;28;20434;-75
2022/11/05 03:32:37;;;;;;;6.80;3.50;;;6.90;99.90;;;;;;5053901;28;20453;-75
2022/11/05 03:35:21;;;;;;;7.80;3.97;;;6.80;99.90;;;;;;5051200;28;20421;-75
2022/11/05 03:37:51;;;;;;;7.07;3.87;;;6.80;99.90;;;;;;5054265;28;20404;-73
2022/11/05 03:40:19;;;;;;;11.07;5.10;;;6.70;99.90;;;;;;5053226;28;20465;-74
2022/11/05 03:42:49;;;;;;;8.20;4.40;;;6.80;99.90;;;;;;5054053;28;20496;-73
2022/11/05 03:45:20;;;;;;;5.73;4.33;;;6.80;99.90;;;;;;5052898;28;20790;-74
2022/11/05 03:47:49;;;;;;;5.57;4.93;;;6.80;99.90;;;;;;5053095;28;20444;-75
2022/11/05 03:50:39;;;;;;;6.70;5.10;;;6.80;99.90;;;;;;5053422;28;20428;-74
2022/11/05 03:53:15;;;;;;;13.53;4.20;;;6.80;99.90;;;;;;5053684;28;20962;-75
2022/11/05 03:55:51;;;;;;;6.87;4.70;;;6.80;99.90;;;;;;5052672;28;20941;-76
2022/11/05 03:58:20;;;;;;;5.63;4.30;;;6.80;99.90;;;;;;5054125;28;20395;-75
2022/11/05 04:00:47;;;;;;;5.77;4.60;;;6.90;99.90;;;;;;5051112;28;20436;-73
2022/11/05 04:03:13;;;;;;;7.87;4.30;;;6.80;99.90;;;;;;5053806;28;20424;-73
2022/11/05 04:05:39;;;;;;;8.17;5.10;;;6.80;99.90;;;;;;5051877;28;20453;-75
2022/11/05 04:13:33;;;;;;;7.00;5.07;;;6.90;99.90;;;;;;5034522;28;20449;-76
2022/11/05 04:18:43;;;;;;;6.97;4.77;;;6.90;99.90;;;;;;5050896;28;20428;-74
2022/11/05 04:24:07;;;;;;;11.20;4.70;;;6.90;99.90;;;;;;5052610;28;20232;-74
2022/11/05 04:26:37;;;;;;;11.20;4.40;;;6.90;99.90;;;;;;5053539;28;20519;-75
2022/11/05 04:31:47;;;;;;;10.50;6.23;;;6.80;99.90;;;;;;5037956;28;20431;-75
2022/11/05 04:34:14;;;;;;;11.20;5.20;;;6.80;99.90;;;;;;5051354;28;20433;-75
2022/11/05 04:36:41;;;;;;;8.90;5.80;;;6.80;99.90;;;;;;5052536;28;20195;-74
2022/11/05 04:39:06;;;;;;;9.03;5.67;;;6.90;99.90;;;;;;5053085;28;20512;-75
2022/11/05 04:41:32;;;;;;;8.57;5.67;;;6.90;99.90;;;;;;5053221;28;20496;-75
2022/11/05 04:43:58;;;;;;;8.83;6.57;;;6.90;99.90;;;;;;5052033;28;20171;-75
2022/11/05 04:46:23;;;;;;;7.93;5.97;;;6.80;99.90;;;;;;5051871;28;20209;-72
2022/11/05 04:48:49;;;;;;;7.27;5.53;;;6.80;99.90;;;;;;5052310;28;20225;-75
2022/11/05 04:51:14;;;;;;;10.07;5.60;;;6.70;99.90;;;;;;5052925;28;20183;-72
2022/11/05 04:53:40;;;;;;;22.87;6.90;;;6.70;99.90;;;;;;5052076;28;20230;-74
2022/11/05 04:56:17;;;;;;;6.50;5.50;;;6.70;99.90;;;;;;5056943;28;20194;-75
2022/11/05 04:58:43;;;;;;;7.67;5.03;;;6.70;99.90;;;;;;5057394;28;20198;-75
2022/11/05 05:01:17;;;;;;;11.13;6.23;;;6.70;99.90;;;;;;5057061;28;20437;-75
2022/11/05 05:03:47;;;;;;;10.50;4.87;;;6.80;1.00;;;;;;5055160;28;20547;-74
2022/11/05 05:06:13;;;;;;;11.20;5.57;;;6.80;1.00;;;;;;5056268;28;20939;-73
2022/11/05 05:08:38;;;;;;;8.27;4.87;;;6.80;1.00;;;;;;5056209;28;20420;-75
2022/11/05 05:11:07;;;;;;;14.30;7.00;;;6.80;1.00;;;;;;5056036;28;20515;-75
2022/11/05 05:13:33;;;;;;;7.10;5.53;;;6.80;1.00;;;;;;5055941;28;20268;-73
2022/11/05 05:16:05;;;;;;;6.30;5.07;;;6.80;1.00;;;;;;5055999;28;20437;-76
2022/11/05 05:18:30;;;;;;;6.77;5.10;;;6.80;1.00;;;;;;5056055;28;20437;-75
2022/11/05 05:23:42;;;;;;;7.30;5.27;;;6.80;1.00;;;;;;5054868;28;20666;-73
2022/11/05 05:26:08;;;;;;;7.60;4.60;;;6.80;1.00;;;;;;5056475;28;20434;-74
2022/11/05 05:28:34;;;;;;;6.40;4.63;;;6.80;1.00;;;;;;5056504;28;20433;-75
2022/11/05 05:31:00;;;;;;;13.30;5.10;;;6.80;1.00;;;;;;5056752;28;20436;-72
2022/11/05 05:33:28;;;;;;;17.17;5.97;;;6.80;1.00;;;;;;5055277;28;20501;-77
2022/11/05 05:35:57;;;;;;;7.80;4.27;;;6.80;1.00;;;;;;5055560;28;20429;-73
2022/11/05 05:38:23;;;;;;;5.97;4.17;;;6.80;1.00;;;;;;5056164;28;20473;-73
2022/11/05 05:40:50;;;;;;;9.70;4.57;;;6.80;1.00;;;;;;5056144;28;20762;-72
2022/11/05 05:43:16;;;;;;;4.47;3.83;;;6.80;1.00;;;;;;5055634;28;20440;-75
2022/11/05 05:45:43;;;;;;;7.67;4.87;;;6.80;1.00;;;;;;5054261;28;20452;-72
2022/11/05 05:48:08;;;;;;;4.83;4.43;;;6.80;1.00;;;;;;5056300;28;20405;-73
2022/11/05 05:50:34;;;;;;;8.70;5.53;;;6.80;1.00;;;;;;5055990;28;20833;-74
2022/11/05 05:53:00;;;;;;;6.27;3.87;;;6.90;1.00;;;;;;5056572;28;20199;-73
2022/11/05 05:55:25;;;;;;;7.60;4.70;;;6.80;1.00;;;;;;5054052;28;20183;-75
2022/11/05 05:57:52;;;;;;;7.80;4.20;;;6.90;1.00;;;;;;5055604;28;20179;-74
2022/11/05 06:00:18;;;;;;;5.27;4.70;;;6.90;1.00;;;;;;5055433;28;20174;-73
2022/11/05 06:02:43;;;;;;;4.70;4.23;;;6.90;1.00;;;;;;5055882;28;20943;-74
2022/11/05 06:05:09;;;;;;;9.30;4.47;;;6.90;1.00;;;;;;5053898;28;20179;-72
2022/11/05 06:07:35;;;;;;;8.93;4.70;;;7.00;1.00;;;;;;5055980;28;20159;-75
2022/11/05 06:10:01;;;;;;;10.43;4.70;;;7.00;1.00;;;;;;5056055;28;20425;-72
2022/11/05 06:12:28;;;;;;;4.80;4.40;;;7.00;1.00;;;;;;5054721;28;20201;-77
2022/11/05 06:14:54;;;;;;;8.70;4.60;;;7.00;1.00;;;;;;5053859;28;20183;-73
2022/11/05 06:17:20;;;;;;;3.50;3.30;;;7.00;1.00;;;;;;5054166;28;20490;-75
2022/11/05 06:19:46;;;;;;;7.87;4.70;;;7.00;1.00;;;;;;5055188;28;20174;-75
2022/11/05 06:22:12;;;;;;;19.33;4.80;;;7.00;1.00;;;;;;5055586;28;20170;-73
2022/11/05 06:24:40;;;;;;;8.97;4.90;;;7.00;1.00;;;;;;5052839;28;20532;-73
2022/11/05 06:27:06;;;;;;;9.07;4.13;;;6.90;1.00;;;;;;5053284;28;20206;-75
2022/11/05 06:29:32;;;;;;;3.93;3.43;;;7.00;1.00;;;;;;5055760;28;20913;-74
2022/11/05 06:31:57;;;;;;;11.67;4.77;;;6.90;1.00;;;;;;5055220;28;20678;-75
2022/11/05 06:34:23;;;;;;;5.77;4.40;;;6.90;1.00;;;;;;5052518;28;20179;-75
2022/11/05 06:36:49;;;;;;;6.47;4.17;;;6.90;1.00;;;;;;5054350;28;20214;-76
2022/11/05 06:39:14;;;;;;;5.13;4.50;;;6.90;1.00;;;;;;5054114;28;20179;-74
2022/11/05 06:41:40;;;;;;;11.60;5.27;;;6.80;1.00;;;;;;5055622;28;20167;-74
2022/11/05 06:44:06;;;;;;;5.50;4.73;;;6.80;1.00;;;;;;5052431;28;20230;-75
2022/11/05 06:46:31;;;;;;;6.47;4.70;;;6.80;1.00;;;;;;5054370;28;20198;-75
2022/11/05 06:48:57;;;;;;;5.53;4.40;;;6.80;1.00;;;;;;5055035;28;20749;-75
2022/11/05 06:51:23;;;;;;;4.80;4.17;;;6.80;1.00;;;;;;5055200;28;20496;-74
2022/11/05 06:53:49;;;;;;;4.63;3.60;;;6.80;1.00;;;;;;5052833;28;20218;-74
2022/11/05 06:56:14;;;;;;;4.87;4.40;;;6.80;1.00;;;;;;5054157;28;20457;-73
2022/11/05 06:58:40;;;;;;;5.97;4.00;;;6.70;1.00;;;;;;5054939;28;20175;-74
2022/11/05 07:01:08;;;;;;;12.10;4.80;;;6.70;1.00;;;;;;5054862;28;20193;-73
2022/11/05 07:03:35;;;;;;;5.63;3.53;;;6.70;1.00;;;;;;5054690;28;20556;-75
2022/11/05 07:06:03;;;;;;;8.43;4.07;;;6.70;1.00;;;;;;5053287;28;20511;-75
2022/11/05 07:08:36;;;;;;;5.87;3.90;;;6.80;1.00;;;;;;5055050;28;20485;-73
2022/11/05 07:11:02;;;;;;;6.83;3.57;;;6.80;1.00;;;;;;5054236;28;20751;-73
2022/11/05 07:13:28;;;;;;;4.30;3.90;;;6.80;1.00;;;;;;5053100;28;20810;-76
2022/11/05 07:15:54;;;;;;;3.70;3.37;;;6.80;1.00;;;;;;5052397;28;20449;-73
2022/11/05 07:18:20;;;;;;;6.70;3.67;;;6.80;1.00;;;;;;5054404;28;20390;-73
2022/11/05 07:20:46;;;;;;;5.63;5.07;;;6.70;1.00;;;;;;5054485;28;20416;-73
2022/11/05 07:23:13;;;;;;;8.40;4.50;;;6.80;1.00;;;;;;5053644;28;20857;-75
2022/11/05 07:25:39;;;;;;;5.90;3.87;;;6.80;1.00;;;;;;5052492;28;20202;-75
2022/11/05 07:28:05;;;;;;;6.73;3.87;;;6.80;1.00;;;;;;5053890;28;20429;-75
2022/11/05 07:30:32;;;;;;;6.40;4.17;;;6.80;1.00;;;;;;5053879;28;20955;-74
2022/11/05 07:32:58;;;;;;;5.90;3.50;;;6.80;1.00;;;;;;5053435;28;20471;-73
2022/11/05 07:35:24;;;;;;;18.33;4.63;;;6.80;1.00;;;;;;5052065;28;20861;-72
2022/11/05 07:37:54;;;;;;;8.10;4.13;;;6.80;1.00;;;;;;5053656;28;20482;-75
2022/11/05 07:40:22;;;;;;;5.27;4.10;;;6.80;1.00;;;;;;5054123;28;20658;-72
2022/11/05 07:42:51;;;;;;;3.73;3.30;;;6.90;1.00;;;;;;5054208;28;20401;-75
2022/11/05 07:45:17;;;;;;;7.20;4.60;;;6.90;1.00;;;;;;5051909;28;20448;-74
2022/11/05 07:47:46;;;;;;;6.50;4.50;;;7.00;1.00;;;;;;5053812;28;20405;-73
2022/11/05 07:50:13;;;;;;;5.73;4.23;;;7.00;1.00;;;;;;5048316;28;20934;-75
2022/11/05 07:52:38;;;;;;;4.53;3.47;;;7.00;1.00;;;;;;5054023;28;20436;-75
2022/11/05 07:55:05;;;;;;;6.40;3.80;;;7.00;1.00;;;;;;5066008;28;20420;-75
2022/11/05 07:57:30;;;;;;;11.20;3.93;;;7.00;1.00;;;;;;5052245;28;20663;-80
2022/11/05 07:59:56;;;;;;;10.37;3.70;;;7.00;1.00;;;;;;5052523;28;20488;-75
2022/11/05 08:02:21;;;;;;;7.00;3.90;;;7.10;1.00;;;;;;5053518;28;20171;-74
2022/11/05 08:04:47;;;;;;;6.43;3.17;;;7.10;1.00;;;;;;5051875;28;20201;-75
2022/11/05 08:07:14;;;;;;;8.43;3.70;;;7.10;1.00;;;;;;5053801;28;20273;-74
2022/11/05 08:09:39;;;;;;;8.87;3.23;;;7.10;1.00;;;;;;5052577;28;20260;-73
2022/11/05 08:12:05;;;;;;;3.70;3.40;;;7.10;1.00;;;;;;5052652;28;20476;-74
2022/11/05 08:14:31;;;;;;;3.70;3.40;;;7.10;1.00;;;;;;5052548;28;20683;-75
2022/11/05 08:16:57;;;;;;;8.07;4.03;;;7.20;1.00;;;;;;5053516;28;20513;-75
2022/11/05 08:19:23;;;;;;;5.00;3.40;;;7.20;1.00;;;;;;5052586;28;20194;-75
2022/11/05 08:21:48;;;;;;;6.27;3.57;;;7.30;1.00;;;;;;5052552;28;20456;-75
2022/11/05 08:24:14;;;;;;;11.63;3.80;;;7.30;1.00;;;;;;5052171;28;20260;-75
2022/11/05 08:26:40;;;;;;;4.53;3.57;;;7.30;1.00;;;;;;5051765;28;20203;-74
2022/11/05 08:29:05;;;;;;;5.93;3.73;;;7.40;1.00;;;;;;5052636;28;20170;-73
2022/11/05 08:31:31;;;;;;;4.63;3.10;;;7.40;1.00;;;;;;5053399;28;20552;-76
2022/11/05 08:33:57;;;;;;;4.00;3.70;;;7.40;1.00;;;;;;5052422;28;20317;-73
2022/11/05 08:36:22;;;;;;;3.27;2.93;;;7.40;1.00;;;;;;5053210;28;20228;-75
2022/11/05 08:38:48;;;;;;;5.60;4.10;;;7.50;1.00;;;;;;5052470;28;20209;-73
2022/11/05 08:41:14;;;;;;;7.07;3.53;;;7.50;1.00;;;;;;5052882;28;20241;-74
2022/11/05 08:43:40;;;;;;;5.87;4.30;;;7.60;1.00;;;;;;5052313;28;20178;-74
2022/11/05 08:46:05;;;;;;;9.27;4.13;;;7.70;1.00;;;;;;5052748;28;20189;-75
2022/11/05 08:48:31;;;;;;;6.27;3.40;;;7.80;1.00;;;;;;5052548;28;20258;-75
2022/11/05 08:51:00;;;;;;;4.47;3.80;;;7.80;1.00;;;;;;5068971;28;20681;-75
2022/11/05 08:53:26;;;;;;;4.40;3.27;;;7.90;1.00;;;;;;5052416;28;20184;-77
2022/11/05 08:55:51;;;;;;;5.23;3.90;;;8.10;1.00;;;;;;5052323;28;20436;-75
2022/11/05 08:58:19;;;;;;;6.00;4.03;;;8.20;1.00;;;;;;5052086;28;20204;-72
2022/11/05 09:00:47;;;;;;;3.77;3.27;;;8.30;1.00;;;;;;5051885;28;20260;-76
2022/11/05 09:03:13;;;;;;;6.23;4.03;;;8.30;1.00;;;;;;5053295;28;20450;-73
2022/11/05 09:05:40;;;;;;;4.33;3.97;;;8.40;99.90;;;;;;5052352;28;20398;-76
2022/11/05 09:08:08;;;;;;;6.13;3.70;;;8.50;99.90;;;;;;5052299;28;20926;-75
2022/11/05 09:10:34;;;;;;;5.13;3.40;;;8.50;99.90;;;;;;5053354;28;20889;-75
2022/11/05 09:13:00;;;;;;;5.43;3.53;;;8.60;99.90;;;;;;5051743;28;20459;-73
2022/11/05 09:15:26;;;;;;;4.43;4.13;;;8.70;99.90;;;;;;5052019;28;20856;-75
2022/11/05 09:17:51;;;;;;;3.60;2.77;;;8.70;99.90;;;;;;5051978;28;20167;-74
2022/11/05 09:20:18;;;;;;;8.67;3.53;;;8.80;99.90;;;;;;5051703;28;20190;-73
2022/11/05 09:22:45;;;;;;;3.60;3.30;;;8.90;99.90;;;;;;5051922;28;20169;-74
2022/11/05 09:25:10;;;;;;;3.50;3.20;;;9.00;99.90;;;;;;5051974;28;20774;-75
2022/11/05 09:27:36;;;;;;;3.20;2.80;;;9.10;99.90;;;;;;5052987;28;20396;-75
2022/11/05 09:30:03;;;;;;;4.03;3.63;;;9.10;99.90;;;;;;5051963;28;20182;-75
2022/11/05 09:32:30;;;;;;;6.77;3.40;;;9.20;99.90;;;;;;5052736;28;20197;-75
2022/11/05 09:34:56;;;;;;;7.07;2.87;;;9.30;99.90;;;;;;5051499;28;20443;-73
2022/11/05 09:37:21;;;;;;;4.40;3.10;;;9.40;99.90;;;;;;5052772;28;20453;-75
2022/11/05 09:39:47;;;;;;;4.80;2.93;;;9.50;99.90;;;;;;5051590;28;20170;-75
2022/11/05 09:42:16;;;;;;;3.60;3.30;;;9.50;99.90;;;;;;5055141;28;20188;-76
2022/11/05 09:44:46;;;;;;;5.53;3.10;;;9.60;99.90;;;;;;5055865;28;20197;-73
2022/11/05 09:47:23;;;;;;;4.90;2.87;;;9.80;99.90;;;;;;5056362;28;20413;-73
2022/11/05 09:49:52;;;;;;;3.67;3.13;;;9.90;99.90;;;;;;5055530;28;20424;-74
2022/11/05 09:52:21;;;;;;;4.13;2.37;;;9.90;99.90;;;;;;5055488;28;20461;-76
2022/11/05 09:54:49;;;;;;;8.63;2.77;;;10.00;99.90;;;;;;5054489;28;20424;-75
2022/11/05 09:57:40;;;;;;;2.40;2.20;;;10.10;99.90;;;;;;5056328;28;20439;-75
2022/11/05 10:00:08;;;;;;;5.17;2.77;;;10.20;99.90;;;;;;5054853;28;20456;-74
2022/11/05 10:02:40;;;;;;;3.23;2.30;;;10.10;99.90;;;;;;5056089;28;21174;-73
2022/11/05 10:05:10;;;;;;;2.67;2.47;;;10.00;99.90;;;;;;5038180;28;20449;-74
2022/11/05 10:07:45;;;;;;;5.80;3.70;;;9.90;99.90;;;;;;5053867;28;20574;-73
2022/11/05 10:10:32;;;;;;;2.17;1.97;;;9.90;99.90;;;;;;5054957;28;20403;-75
2022/11/05 10:13:11;;;;;;;4.00;2.87;;;10.00;99.90;;;;;;5053346;28;20424;-75
2022/11/05 10:15:45;;;;;;;3.03;2.20;;;10.20;99.90;;;;;;5054726;28;20436;-76
2022/11/05 10:18:20;;;;;;;2.20;1.97;;;10.20;99.90;;;;;;5055968;28;20394;-77
2022/11/05 10:20:46;;;;;;;3.63;2.07;;;10.40;99.90;;;;;;5054815;28;20755;-76
2022/11/05 10:23:18;;;;;;;3.83;2.80;;;10.50;99.90;;;;;;5054584;28;20424;-76
2022/11/05 10:25:54;;;;;;;3.20;2.40;;;10.70;99.90;;;;;;5054683;28;20453;-76
2022/11/05 10:28:23;;;;;;;4.33;2.80;;;10.80;99.90;;;;;;5053906;28;20490;-74
2022/11/05 10:31:04;;;;;;;6.50;2.70;;;10.90;99.90;;;;;;5054591;28;20495;-76
2022/11/05 10:33:37;;;;;;;3.43;2.30;;;11.10;99.90;;;;;;5055295;28;20461;-76
2022/11/05 10:36:06;;;;;;;3.63;2.13;;;11.30;99.90;;;;;;5055175;28;20434;-73
2022/11/05 10:38:32;;;;;;;4.70;2.43;;;11.40;99.90;;;;;;5054571;28;20447;-76
2022/11/05 10:41:23;;;;;;;5.13;2.47;;;11.50;99.90;;;;;;5052526;28;20818;-74
2022/11/05 10:43:53;;;;;;;3.53;2.33;;;11.60;99.90;;;;;;5053455;28;20649;-74
2022/11/05 10:46:39;;;;;;;6.27;2.57;;;11.70;99.90;;;;;;5053863;28;20856;-76
2022/11/05 10:49:52;;;;;;;7.27;3.83;;;11.70;99.90;;;;;;5054104;28;20414;-73
2022/11/05 10:52:41;;;;;;;6.33;2.37;;;11.70;99.90;;;;;;5015256;28;20450;-76
2022/11/05 10:55:22;;;;;;;3.00;1.67;;;11.60;99.90;;;;;;5051928;28;20952;-76
2022/11/05 10:57:50;;;;;;;3.07;2.20;;;11.60;99.90;;;;;;5055148;28;20441;-76
2022/11/05 11:00:16;;;;;;;2.73;2.53;;;11.50;99.90;;;;;;5052961;28;20417;-72
2022/11/05 11:02:49;;;;;;;4.40;2.30;;;11.50;99.90;;;;;;5054951;28;20754;-74
2022/11/05 11:05:30;;;;;;;7.00;2.43;;;11.50;99.90;;;;;;5049817;28;20432;-76
2022/11/05 11:08:09;;;;;;;2.63;1.73;;;11.60;99.90;;;;;;5051214;28;20407;-75
2022/11/05 11:10:52;;;;;;;2.30;1.77;;;11.60;99.90;;;;;;5054790;28;20835;-73
2022/11/05 11:13:26;;;;;;;4.80;2.43;;;11.70;99.90;;;;;;5054819;28;20445;-76
2022/11/05 11:15:52;;;;;;;2.93;2.20;;;11.80;99.90;;;;;;5053077;28;20460;-77
2022/11/05 11:18:30;;;;;;;1.80;1.70;;;11.80;99.90;;;;;;5054722;28;20379;-77
2022/11/05 11:21:18;;;;;;;5.50;1.90;;;11.90;99.90;;;;;;5034745;28;20413;-76
2022/11/05 11:24:01;;;;;;;4.67;2.27;;;12.00;99.90;;;;;;5035493;28;20376;-74
2022/11/05 11:26:36;;;;;;;3.30;2.33;;;12.00;99.90;;;;;;5053291;28;20856;-77
2022/11/05 11:29:27;;;;;;;6.63;1.77;;;12.00;99.90;;;;;;5054168;28;20417;-75
2022/11/05 11:31:58;;;;;;;3.17;1.63;;;12.00;99.90;;;;;;5052112;28;20416;-76
2022/11/05 11:34:34;;;;;;;1.50;1.40;;;12.00;99.90;;;;;;5051424;28;20400;-77
2022/11/05 11:37:24;;;;;;;3.30;1.67;;;12.00;99.90;;;;;;5052394;28;20415;-77
2022/11/05 11:40:01;;;;;;;5.03;2.27;;;12.00;99.90;;;;;;5066938;28;20438;-76
2022/11/05 11:42:37;;;;;;;2.30;2.10;;;12.10;99.90;;;;;;5052400;28;20425;-75
2022/11/05 11:45:13;;;;;;;5.17;1.83;;;12.20;99.90;;;;;;5052012;28;20771;-75
2022/11/05 11:47:43;;;;;;;9.50;3.57;;;12.30;99.90;;;;;;5053256;28;20431;-75
2022/11/05 11:50:39;;;;;;;4.27;2.10;;;12.40;99.90;;;;;;5053915;28;20892;-76
2022/11/05 11:53:20;;;;;;;4.83;1.83;;;12.70;99.90;;;;;;5053860;28;20875;-77
2022/11/05 11:55:56;;;;;;;5.77;2.73;;;12.90;99.50;;;;;;5034797;28;20404;-74
2022/11/05 11:58:34;;;;;;;2.43;1.53;;;12.90;93.10;;;;;;5053361;28;20401;-77
2022/11/05 12:01:18;;;;;;;2.60;2.20;;;12.90;93.20;;;;;;5052860;28;20427;-78
2022/11/05 12:03:56;;;;;;;2.43;2.20;;;12.80;92.30;;;;;;5052566;28;20403;-77
2022/11/05 12:06:59;;;;;;;4.43;1.80;;;12.70;88.60;;;;;;5051731;28;20456;-73
2022/11/05 12:09:53;;;;;;;8.13;2.23;;;12.70;69.50;;;;;;5051651;28;20436;-77
2022/11/05 12:12:42;;;;;;;2.10;1.90;;;12.70;91.60;;;;;;5053830;28;20420;-76
2022/11/05 12:15:11;;;;;;;2.77;2.07;;;12.70;79.60;;;;;;5052340;28;20761;-75
2022/11/05 12:17:51;;;;;;;2.70;2.50;;;12.70;68.70;;;;;;5051989;28;20824;-76
2022/11/05 12:20:39;;;;;;;2.60;2.40;;;12.70;75.20;;;;;;5053929;28;20376;-76
2022/11/05 12:23:38;;;;;;;3.63;2.30;;;12.60;68.80;;;;;;5037622;28;20406;-76
2022/11/05 12:26:26;;;;;;;2.90;2.10;;;12.60;64.10;;;;;;5052407;28;20428;-76
2022/11/05 12:28:54;;;;;;;5.30;2.50;;;12.50;64.70;;;;;;5053558;28;20391;-73
2022/11/05 12:31:35;;;;;;;2.17;2.07;;;12.30;56.50;;;;;;5053213;28;20914;-75
2022/11/05 12:34:31;;;;;;;2.33;2.00;;;12.20;63.00;;;;;;5052602;28;21005;-76
2022/11/05 12:36:57;;;;;;;3.17;2.50;;;12.30;59.20;;;;;;5051176;28;20776;-77
2022/11/05 12:39:25;;;;;;;3.20;2.40;;;12.20;54.50;;;;;;5053378;28;20455;-75
2022/11/05 12:42:00;;;;;;;4.23;2.50;;;12.30;62.70;;;;;;5052434;28;20508;-74
2022/11/05 12:44:48;;;;;;;2.77;2.43;;;12.30;61.50;;;;;;5052538;28;20383;-76
2022/11/05 12:47:34;;;;;;;6.03;2.70;;;12.30;26.70;;;;;;5052028;28;20431;-76
2022/11/05 12:50:35;;;;;;;3.20;2.43;;;12.40;55.70;;;;;;5053943;28;20468;-77
2022/11/05 12:53:40;;;;;;;3.13;2.07;;;12.50;44.30;;;;;;5051783;28;20453;-77
2022/11/05 12:56:15;;;;;;;2.50;2.30;;;12.50;52.20;;;;;;5050402;28;20427;-73
2022/11/05 12:58:46;;;;;;;2.73;2.53;;;12.60;48.90;;;;;;5051873;28;20413;-77
2022/11/05 13:01:32;;;;;;;4.80;2.10;;;12.60;30.00;;;;;;5052855;28;20445;-73
2022/11/05 13:04:01;;;;;;;2.40;2.20;;;12.70;24.10;;;;;;5067690;28;20411;-74
2022/11/05 13:06:44;;;;;;;5.80;2.17;;;12.60;21.20;;;;;;5049329;28;20468;-76
2022/11/05 13:09:31;;;;;;;9.40;2.50;;;12.60;38.40;;;;;;5053114;28;20387;-76
2022/11/05 13:12:02;;;;;;;2.90;2.17;;;12.50;30.30;;;;;;5039244;28;20436;-74
2022/11/05 13:14:35;;;;;;;3.33;2.10;;;12.50;24.70;;;;;;5051441;28;20465;-77
2022/11/05 13:17:14;;;;;;;4.30;3.00;;;12.50;29.10;;;;;;5048954;28;20433;-72
2022/11/05 13:20:04;;;;;;;2.37;2.17;;;12.50;22.30;;;;;;5056949;28;20387;-72
2022/11/05 13:22:43;;;;;;;2.70;2.20;;;12.40;23.90;;;;;;5056108;28;20775;-72
2022/11/05 13:25:24;;;;;;;2.47;2.27;;;12.30;19.00;;;;;;5055812;28;20424;-72
2022/11/05 13:28:11;;;;;;;2.57;2.37;;;12.30;23.40;;;;;;5054747;28;20407;-73
2022/11/05 13:30:42;;;;;;;8.00;2.80;;;12.40;5.90;;;;;;5056019;28;20794;-78
2022/11/05 13:33:25;;;;;;;4.93;2.77;;;12.30;32.50;;;;;;5056417;28;20455;-73
2022/11/05 13:39:19;;;;;;;2.53;2.00;;;12.40;19.50;;;;;;5056967;28;20429;-73
2022/11/05 13:42:18;;;;;;;3.00;2.00;;;12.30;28.30;;;;;;5056331;28;20392;-76
2022/11/05 13:45:12;;;;;;;5.80;2.40;;;12.30;25.20;;;;;;5054283;28;20425;-76
2022/11/05 13:47:48;;;;;;;4.27;2.40;;;12.20;21.40;;;;;;5052592;28;20442;-72
2022/11/05 13:50:25;;;;;;;2.93;2.70;;;12.20;12.90;;;;;;5051341;28;20456;-72
2022/11/05 13:53:15;;;;;;;5.90;2.60;;;12.30;19.60;;;;;;5055867;28;20444;-76
2022/11/05 13:55:55;;;;;;;3.70;3.00;;;12.10;13.50;;;;;;5035370;28;20961;-77
2022/11/05 13:58:35;;;;;;;4.83;3.40;;;12.10;16.50;;;;;;5049416;28;20400;-76
2022/11/05 14:01:38;;;;;;;6.03;2.43;;;12.00;20.80;;;;;;5053974;28;20387;-73
2022/11/05 14:04:05;;;;;;;4.37;2.80;;;12.00;18.90;;;;;;5053752;28;20520;-76
2022/11/05 14:06:34;;;;;;;5.43;2.23;;;12.00;24.20;;;;;;5054366;28;20403;-75